Time;durP1;ratioP1;P1;durP2;ratioP2;P2;SDS_P1;SDS_P2;PMS_P1;PMS_P2;Temp;Humidity;BMP_temperature;BMP_pressure;BME280_temperature;BME280_humidity;BME280_pressure;Samples;Min_cycle;Max_cycle;Signal;HPM_P1;HPM_P2
2023/06/06 00:01:34;;;;;;;0.50;0.50;;;;;;;17.64;80.75;99885.66;4972684;28;20207;-68
2023/06/06 00:04:01;;;;;;;0.40;0.40;;;;;;;17.51;81.02;99879.38;4972290;28;20203;-68
2023/06/06 00:06:32;;;;;;;0.50;0.50;;;;;;;17.56;81.12;99890.41;4971697;28;20216;-68
2023/06/06 00:08:59;;;;;;;0.60;0.60;;;;;;;17.54;81.12;99889.63;4971781;28;20248;-68
2023/06/06 00:11:28;;;;;;;1.23;0.60;;;;;;;17.43;81.88;99893.66;4972353;28;20283;-68
2023/06/06 00:13:56;;;;;;;0.50;0.50;;;;;;;17.37;82.34;99891.38;4972026;28;20244;-68
2023/06/06 00:16:23;;;;;;;0.60;0.60;;;;;;;17.30;82.57;99885.66;4972992;28;20227;-68
2023/06/06 00:18:52;;;;;;;0.60;0.60;;;;;;;17.34;82.80;99889.78;4971870;28;20641;-68
2023/06/06 00:21:21;;;;;;;0.50;0.50;;;;;;;17.36;83.24;99903.50;4970790;28;20199;-68
2023/06/06 00:23:47;;;;;;;0.50;0.50;;;;;;;17.36;83.15;99900.91;4971757;28;20234;-68
2023/06/06 00:26:14;;;;;;;0.40;0.40;;;;;;;17.42;82.80;99903.19;4971792;28;20657;-68
2023/06/06 00:28:41;;;;;;;0.57;0.57;;;;;;;17.45;82.66;99902.22;4971677;28;20204;-68
2023/06/06 00:31:09;;;;;;;0.40;0.40;;;;;;;17.47;82.53;99893.44;4971800;28;20208;-68
2023/06/06 00:33:36;;;;;;;0.50;0.50;;;;;;;17.45;82.45;99886.66;4971998;28;20204;-68
2023/06/06 00:36:03;;;;;;;0.50;0.50;;;;;;;17.45;82.33;99892.66;4971733;28;20274;-68
2023/06/06 00:38:30;;;;;;;0.60;0.60;;;;;;;17.18;83.78;99891.47;4971788;28;20531;-68
2023/06/06 00:40:57;;;;;;;0.50;0.50;;;;;;;17.11;84.55;99887.50;4971101;28;20207;-68
2023/06/06 00:43:24;;;;;;;0.40;0.40;;;;;;;17.05;84.54;99880.88;4971312;28;20576;-68
2023/06/06 00:45:51;;;;;;;0.50;0.50;;;;;;;17.14;84.67;99887.34;4971579;28;20203;-68
2023/06/06 00:48:20;;;;;;;0.50;0.50;;;;;;;17.16;84.61;99890.69;4971409;28;20203;-68
2023/06/06 00:50:48;;;;;;;0.40;0.40;;;;;;;17.12;84.91;99886.59;4971679;28;20207;-68
2023/06/06 00:53:15;;;;;;;0.50;0.50;;;;;;;17.14;84.67;99892.53;4971466;28;20294;-68
2023/06/06 00:55:42;;;;;;;0.60;0.60;;;;;;;17.13;84.78;99890.81;4971273;28;20220;-68
2023/06/06 00:58:10;;;;;;;0.50;0.50;;;;;;;17.10;85.23;99884.06;4970975;28;20299;-68
2023/06/06 01:00:39;;;;;;;0.40;0.40;;;;;;;17.06;85.57;99881.72;4971574;28;20199;-68
2023/06/06 01:03:09;;;;;;;0.60;0.60;;;;;;;16.91;86.13;99878.09;4970874;28;20230;-68
2023/06/06 01:05:38;;;;;;;0.63;0.63;;;;;;;16.91;86.42;99878.09;4971209;28;20303;-68
2023/06/06 01:08:05;;;;;;;0.40;0.40;;;;;;;16.95;86.54;99879.63;4970705;28;20195;-68
2023/06/06 01:10:34;;;;;;;0.40;0.40;;;;;;;16.93;86.61;99875.44;4970949;28;20286;-68
2023/06/06 01:13:07;;;;;;;0.50;0.50;;;;;;;16.99;86.39;99880.31;4970638;28;20212;-68
2023/06/06 01:15:42;;;;;;;0.50;0.50;;;;;;;16.92;86.75;99876.34;4970598;28;20309;-68
2023/06/06 01:18:11;;;;;;;0.40;0.40;;;;;;;16.91;87.53;99877.25;4971300;28;20207;-68
2023/06/06 01:20:41;;;;;;;0.40;0.40;;;;;;;16.83;87.93;99869.03;4971344;28;20649;-68
2023/06/06 01:23:11;;;;;;;0.60;0.60;;;;;;;16.91;87.64;99878.09;4970644;28;20289;-68
2023/06/06 01:25:40;;;;;;;0.40;0.40;;;;;;;16.91;87.81;99874.66;4970978;28;20364;-68
2023/06/06 01:28:13;;;;;;;0.50;0.50;;;;;;;16.90;87.92;99870.41;4970891;28;20203;-68
2023/06/06 01:30:41;;;;;;;0.50;0.50;;;;;;;16.86;88.35;99874.91;4970815;28;20231;-68
2023/06/06 01:33:16;;;;;;;0.37;0.37;;;;;;;16.82;89.06;99872.53;4970107;28;20200;-68
2023/06/06 01:35:53;;;;;;;0.40;0.40;;;;;;;16.74;89.36;99878.91;4970972;28;20642;-68
2023/06/06 01:38:25;;;;;;;0.50;0.50;;;;;;;16.64;89.18;99885.41;4969909;28;20753;-68
2023/06/06 01:40:55;;;;;;;0.67;0.67;;;;;;;16.55;89.21;99885.84;4971210;28;20253;-68
2023/06/06 01:43:23;;;;;;;0.50;0.50;;;;;;;16.51;88.40;99881.69;4970376;28;20219;-68
2023/06/06 01:45:51;;;;;;;0.60;0.60;;;;;;;16.46;88.22;99881.09;4970931;28;20238;-68
2023/06/06 01:48:19;;;;;;;0.40;0.40;;;;;;;16.47;88.71;99877.59;4972343;28;20207;-69
2023/06/06 01:50:47;;;;;;;0.50;0.50;;;;;;;16.47;89.24;99877.59;4971257;28;20262;-68
2023/06/06 01:53:13;;;;;;;0.63;0.57;;;;;;;16.44;89.03;99877.75;4971910;28;20211;-69
2023/06/06 01:55:41;;;;;;;0.70;0.70;;;;;;;16.39;89.76;99879.69;4976998;28;20238;-68
2023/06/06 01:58:08;;;;;;;0.67;0.67;;;;;;;16.33;89.69;99874.78;4974585;28;20638;-69
2023/06/06 02:00:35;;;;;;;0.50;0.50;;;;;;;16.26;90.10;99889.75;4977744;28;20210;-68
2023/06/06 02:03:02;;;;;;;0.70;0.70;;;;;;;16.26;90.16;99894.09;4973919;28;20204;-68
2023/06/06 02:05:29;;;;;;;0.50;0.50;;;;;;;16.30;89.87;99885.28;4974355;28;20298;-68
2023/06/06 02:07:56;;;;;;;0.60;0.60;;;;;;;16.24;89.86;99893.31;4975572;28;20210;-68
2023/06/06 02:10:22;;;;;;;0.40;0.40;;;;;;;16.12;90.07;99897.28;4974228;28;20219;-69
2023/06/06 02:12:50;;;;;;;0.50;0.50;;;;;;;16.07;90.31;99898.41;4975174;28;20641;-68
2023/06/06 02:15:17;;;;;;;0.50;0.50;;;;;;;16.07;90.64;99898.41;4974926;28;20203;-68
2023/06/06 02:17:44;;;;;;;0.60;0.60;;;;;;;16.04;90.69;99898.56;4974743;28;20806;-69
2023/06/06 02:20:11;;;;;;;0.50;0.50;;;;;;;15.90;90.64;99887.97;4974094;28;20203;-68
2023/06/06 02:22:39;;;;;;;0.40;0.40;;;;;;;15.98;90.71;99888.47;4967875;28;20242;-68
2023/06/06 02:25:06;;;;;;;0.60;0.60;;;;;;;16.01;90.53;99901.28;4976164;28;20263;-68
2023/06/06 02:27:34;;;;;;;0.50;0.50;;;;;;;15.97;90.18;99897.13;4972528;28;20286;-68
2023/06/06 02:30:07;;;;;;;0.60;0.60;;;;;;;15.90;89.93;99903.47;4973871;28;20615;-68
2023/06/06 02:32:33;;;;;;;0.50;0.50;;;;;;;15.84;89.88;99896.00;4973762;28;20212;-69
2023/06/06 02:35:01;;;;;;;0.50;0.50;;;;;;;15.83;90.36;99904.69;4974366;28;20637;-69
2023/06/06 02:37:28;;;;;;;0.50;0.50;;;;;;;15.77;90.41;99899.78;4973148;28;20226;-68
2023/06/06 02:39:54;;;;;;;0.50;0.50;;;;;;;15.68;91.38;99891.50;4973715;28;20206;-68
2023/06/06 02:42:21;;;;;;;0.53;0.47;;;;;;;15.75;91.27;99895.50;4973241;28;20726;-68
2023/06/06 02:44:48;;;;;;;0.50;0.50;;;;;;;15.74;91.48;99901.56;4973597;28;20232;-69
2023/06/06 02:47:17;;;;;;;0.60;0.60;;;;;;;15.69;92.38;99897.50;4973594;28;20222;-69
2023/06/06 02:49:45;;;;;;;2.70;2.50;;;;;;;15.61;93.04;99905.59;4972767;28;20686;-69
2023/06/06 02:52:11;;;;;;;0.63;0.63;;;;;;;15.58;93.40;99908.31;4975472;28;20209;-68
2023/06/06 02:54:40;;;;;;;0.50;0.50;;;;;;;15.64;93.12;99900.28;4975098;28;20214;-68
2023/06/06 02:57:07;;;;;;;0.97;0.97;;;;;;;15.67;92.93;99897.56;4973369;28;20314;-69
2023/06/06 02:59:34;;;;;;;0.43;0.43;;;;;;;15.67;93.15;99900.16;4968920;28;20200;-69
2023/06/06 03:02:01;;;;;;;0.50;0.50;;;;;;;15.70;93.14;99900.00;4975423;28;20211;-69
2023/06/06 03:04:29;;;;;;;0.47;0.47;;;;;;;15.58;93.44;99890.22;4970808;28;20318;-68
2023/06/06 03:06:56;;;;;;;0.63;0.63;;;;;;;15.71;93.76;99912.03;4973980;28;20203;-69
2023/06/06 03:09:24;;;;;;;0.40;0.40;;;;;;;15.65;94.28;99906.28;4973634;28;20690;-69
2023/06/06 03:11:51;;;;;;;0.50;0.50;;;;;;;15.56;94.68;99902.38;4973475;28;20207;-69
2023/06/06 03:14:18;;;;;;;0.50;0.50;;;;;;;15.55;94.69;99899.84;4972763;28;20668;-69
2023/06/06 03:16:47;;;;;;;0.93;0.93;;;;;;;15.52;95.32;99911.16;4973334;28;20222;-69
2023/06/06 03:19:14;;;;;;;0.50;0.50;;;;;;;15.58;95.04;99913.47;4973093;28;20568;-68
2023/06/06 03:21:42;;;;;;;0.60;0.60;;;;;;;15.62;95.02;99912.44;4973437;28;20676;-68
2023/06/06 03:24:09;;;;;;;0.50;0.50;;;;;;;15.65;94.69;99917.47;4973408;28;20377;-68
2023/06/06 03:26:39;;;;;;;1.53;0.90;;;;;;;15.69;94.43;99916.44;4974182;28;20282;-68
2023/06/06 03:29:06;;;;;;;0.40;0.40;;;;;;;15.73;94.23;99920.56;4972409;28;20207;-68
2023/06/06 03:31:33;;;;;;;0.50;0.50;;;;;;;15.65;94.07;99917.47;4971936;28;20671;-68
2023/06/06 03:33:59;;;;;;;0.70;0.70;;;;;;;15.57;94.80;99914.38;4972653;28;20210;-68
2023/06/06 03:36:27;;;;;;;0.40;0.40;;;;;;;15.59;94.81;99922.91;4972982;28;20223;-67
2023/06/06 03:38:55;;;;;;;0.63;0.63;;;;;;;15.67;95.00;99920.81;4975686;28;20209;-68
2023/06/06 03:41:22;;;;;;;0.70;0.70;;;;;;;15.79;94.96;99924.66;4974013;28;20270;-68
2023/06/06 03:43:48;;;;;;;0.50;0.50;;;;;;;15.89;94.97;99922.50;4973301;28;20255;-68
2023/06/06 03:46:15;;;;;;;0.60;0.60;;;;;;;16.03;94.78;99922.72;4972438;28;20203;-68
2023/06/06 03:48:42;;;;;;;0.73;0.60;;;;;;;16.12;93.73;99927.50;4974220;28;20639;-68
2023/06/06 03:51:08;;;;;;;0.50;0.50;;;;;;;16.16;93.30;99926.44;4971846;28;20211;-68
2023/06/06 03:53:35;;;;;;;0.80;0.80;;;;;;;16.18;93.66;99916.91;4972131;28;20202;-68
2023/06/06 03:56:04;;;;;;;0.70;0.70;;;;;;;16.36;94.32;99915.22;4972170;28;20300;-68
2023/06/06 03:58:31;;;;;;;0.40;0.40;;;;;;;16.58;94.37;99927.13;4971835;28;20203;-68
2023/06/06 04:00:59;;;;;;;0.50;0.50;;;;;;;16.74;94.64;99929.84;4973341;28;20608;-68
2023/06/06 04:03:26;;;;;;;0.40;0.40;;;;;;;16.92;94.58;99928.16;4971935;28;20208;-68
2023/06/06 04:05:53;;;;;;;0.50;0.50;;;;;;;17.09;94.15;99928.19;4972081;28;20302;-68
2023/06/06 04:08:20;;;;;;;0.60;0.60;;;;;;;17.29;94.08;99926.28;4971951;28;20204;-68
2023/06/06 04:10:47;;;;;;;0.50;0.50;;;;;;;17.49;94.39;99922.72;4968712;28;20207;-68
2023/06/06 04:13:15;;;;;;;0.50;0.50;;;;;;;17.66;94.04;99925.34;4971803;28;20266;-68
2023/06/06 04:15:42;;;;;;;0.40;0.40;;;;;;;17.80;93.89;99922.84;4971501;28;20210;-68
2023/06/06 04:18:09;;;;;;;0.50;0.50;;;;;;;18.01;94.17;99925.25;4973059;28;20599;-68
2023/06/06 04:20:36;;;;;;;0.50;0.50;;;;;;;18.15;93.48;99912.41;4975770;28;20215;-68
2023/06/06 04:23:03;;;;;;;0.40;0.40;;;;;;;18.42;92.59;99931.69;4971453;28;20737;-68
2023/06/06 04:25:30;;;;;;;0.57;0.57;;;;;;;18.65;91.82;99930.47;4972060;28;20725;-68
2023/06/06 04:27:56;;;;;;;0.40;0.40;;;;;;;18.89;91.47;99942.13;4971821;28;20196;-68
2023/06/06 04:30:24;;;;;;;0.60;0.60;;;;;;;19.03;91.15;99939.56;4970766;28;20232;-68
2023/06/06 04:32:52;;;;;;;0.60;0.60;;;;;;;19.18;90.25;99940.50;4967814;28;20681;-70
2023/06/06 04:35:19;;;;;;;0.60;0.60;;;;;;;19.29;89.97;99940.69;4968807;28;20297;-70
2023/06/06 04:37:48;;;;;;;0.50;0.50;;;;;;;19.37;89.18;99935.91;4970499;28;20723;-74
2023/06/06 04:40:15;;;;;;;0.47;0.47;;;;;;;19.45;89.29;99938.94;4970671;28;20229;-74
2023/06/06 04:42:42;;;;;;;1.03;0.73;;;;;;;19.56;88.35;99928.75;4971266;28;20667;-74
2023/06/06 04:45:10;;;;;;;2.10;0.73;;;;;;;19.66;88.68;99935.09;4970441;28;20203;-70
2023/06/06 04:47:40;;;;;;;0.50;0.50;;;;;;;19.85;86.21;99935.66;4971483;28;20198;-71
2023/06/06 04:50:08;;;;;;;0.40;0.40;;;;;;;19.74;84.50;99938.06;4969083;28;20678;-70
2023/06/06 04:52:35;;;;;;;1.53;1.53;;;;;;;19.65;86.46;99928.19;4972836;28;20202;-71
2023/06/06 04:55:03;;;;;;;0.50;0.50;;;;;;;19.87;86.76;99936.41;4971493;28;20300;-71
2023/06/06 04:57:32;;;;;;;0.93;0.93;;;;;;;20.13;85.11;99939.22;4971685;28;20307;-71
2023/06/06 05:00:00;;;;;;;0.30;0.30;;;;;;;19.96;82.29;99942.00;4970127;28;20209;-74
2023/06/06 05:02:28;;;;;;;0.37;0.37;;;;;;;19.96;82.79;99942.00;4972150;28;20254;-70
2023/06/06 05:04:58;;;;;;;0.40;0.40;;;;;;;19.78;83.75;99931.75;4972403;28;20726;-71
2023/06/06 05:07:25;;;;;;;0.43;0.43;;;;;;;19.89;84.00;99937.16;4971811;28;20246;-72
2023/06/06 05:09:53;;;;;;;0.50;0.50;;;;;;;20.04;83.33;99945.81;4970922;28;20214;-72
2023/06/06 05:12:19;;;;;;;0.43;0.43;;;;;;;20.05;81.68;99946.66;4973715;28;20206;-71
2023/06/06 05:14:46;;;;;;;0.50;0.50;;;;;;;19.67;82.85;99941.97;4971123;28;20639;-71
2023/06/06 05:17:17;;;;;;;0.43;0.43;;;;;;;19.67;84.05;99933.31;4970438;28;20229;-70
2023/06/06 05:19:45;;;;;;;0.40;0.40;;;;;;;19.60;83.30;99943.25;4971055;28;20204;-72
2023/06/06 05:22:13;;;;;;;0.30;0.30;;;;;;;19.45;82.96;99938.94;4970505;28;20205;-70
2023/06/06 05:24:41;;;;;;;0.50;0.50;;;;;;;19.68;84.38;99943.63;4971483;28;20257;-73
2023/06/06 05:27:07;;;;;;;0.50;0.50;;;;;;;19.77;82.87;99944.88;4970259;28;20200;-72
2023/06/06 05:29:35;;;;;;;0.50;0.50;;;;;;;19.95;83.02;99945.53;4970348;28;20709;-73
2023/06/06 05:32:02;;;;;;;0.33;0.33;;;;;;;20.16;81.92;99954.66;4969925;28;20212;-69
2023/06/06 05:34:28;;;;;;;0.40;0.40;;;;;;;20.39;81.83;99946.28;4970710;28;20211;-69
2023/06/06 05:36:55;;;;;;;0.40;0.40;;;;;;;20.62;78.43;99956.13;4970870;28;20698;-68
2023/06/06 05:39:24;;;;;;;0.30;0.30;;;;;;;20.70;78.55;99956.50;4970791;28;20215;-68
2023/06/06 05:41:54;;;;;;;0.40;0.40;;;;;;;20.71;79.11;99963.34;4970671;28;20239;-68
2023/06/06 05:44:21;;;;;;;0.50;0.50;;;;;;;20.90;79.60;99958.66;4971414;28;20702;-72
2023/06/06 05:46:53;;;;;;;0.67;0.67;;;;;;;21.18;78.08;99951.72;4970623;28;20203;-68
2023/06/06 05:49:20;;;;;;;0.70;0.70;;;;;;;21.27;76.80;99953.72;4969725;28;20613;-67
2023/06/06 05:51:46;;;;;;;0.40;0.40;;;;;;;21.61;76.36;99954.94;4970558;28;20222;-67
2023/06/06 05:54:14;;;;;;;0.43;0.43;;;;;;;21.64;73.67;99966.03;4969530;28;20250;-67
2023/06/06 05:56:43;;;;;;;0.63;0.63;;;;;;;21.57;74.77;99959.53;4969940;28;20228;-67
2023/06/06 05:59:09;;;;;;;0.43;0.43;;;;;;;21.72;73.88;99963.72;4969950;28;20215;-65
2023/06/06 06:01:37;;;;;;;0.63;0.63;;;;;;;21.65;73.84;99936.34;4970652;28;20794;-65
2023/06/06 06:04:03;;;;;;;0.30;0.30;;;;;;;22.11;72.36;99959.38;4970687;28;20242;-65
2023/06/06 06:06:31;;;;;;;0.50;0.50;;;;;;;22.29;71.82;99964.19;4969744;28;20231;-66
2023/06/06 06:09:02;;;;;;;0.30;0.30;;;;;;;22.18;70.35;99960.63;4969938;28;20215;-67
2023/06/06 06:11:29;;;;;;;0.40;0.40;;;;;;;22.18;71.78;99965.84;4970668;28;20267;-66
2023/06/06 06:13:57;;;;;;;0.40;0.40;;;;;;;21.83;70.36;99957.78;4971192;28;20216;-67
2023/06/06 06:16:24;;;;;;;0.40;0.40;;;;;;;21.89;72.15;99955.63;4970855;28;20212;-65
2023/06/06 06:18:50;;;;;;;0.40;0.40;;;;;;;22.12;72.25;99956.69;4968109;28;20223;-65
2023/06/06 06:21:19;;;;;;;0.40;0.40;;;;;;;22.31;68.96;99958.84;4969964;28;20695;-66
2023/06/06 06:23:46;;;;;;;0.30;0.30;;;;;;;22.56;68.33;99956.19;4970575;28;20203;-66
2023/06/06 06:26:12;;;;;;;0.50;0.50;;;;;;;22.69;66.70;99959.63;4969601;28;20243;-67
2023/06/06 06:28:39;;;;;;;0.50;0.50;;;;;;;22.70;67.25;99956.09;4970259;28;20204;-67
2023/06/06 06:31:07;;;;;;;0.20;0.20;;;;;;;22.82;65.61;99952.59;4971241;28;20203;-66
2023/06/06 06:33:34;;;;;;;0.30;0.30;;;;;;;22.78;66.40;99953.75;4966316;28;20219;-66
2023/06/06 06:36:01;;;;;;;0.33;0.33;;;;;;;22.92;65.61;99953.59;4967336;28;20262;-67
2023/06/06 06:38:28;;;;;;;0.30;0.30;;;;;;;23.17;66.53;99957.03;4969391;28;20227;-67
2023/06/06 06:40:55;;;;;;;0.40;0.40;;;;;;;23.24;64.29;99953.88;4971749;28;20215;-66
2023/06/06 06:43:22;;;;;;;0.40;0.40;;;;;;;23.41;64.24;99957.88;4971935;28;20651;-65
2023/06/06 06:45:48;;;;;;;0.40;0.40;;;;;;;23.65;63.51;99937.72;4974400;28;20204;-65
2023/06/06 06:48:17;;;;;;;0.30;0.30;;;;;;;23.44;63.03;99936.72;4973602;28;20199;-68
2023/06/06 06:50:44;;;;;;;0.40;0.40;;;;;;;23.54;61.04;99945.56;4975765;28;20210;-67
2023/06/06 06:53:13;;;;;;;0.20;0.20;;;;;;;23.33;62.92;99936.63;4973446;28;20203;-67
2023/06/06 06:55:39;;;;;;;0.30;0.30;;;;;;;22.98;62.93;99929.63;4971669;28;20203;-68
2023/06/06 06:58:07;;;;;;;0.40;0.40;;;;;;;23.11;63.89;99931.31;4972725;28;20380;-68
2023/06/06 07:00:33;;;;;;;0.30;0.30;;;;;;;23.55;64.19;99923.69;4972604;28;20263;-68
2023/06/06 07:03:03;;;;;;;0.30;0.30;;;;;;;23.36;62.31;99924.16;4972694;28;20218;-68
2023/06/06 07:05:32;;;;;;;0.30;0.30;;;;;;;23.56;63.30;99938.41;4974310;28;20196;-68
2023/06/06 07:07:59;;;;;;;0.40;0.40;;;;;;;23.82;62.11;99934.66;4971815;28;20204;-69
2023/06/06 07:10:31;;;;;;;0.60;0.60;;;;;;;23.98;61.60;99942.19;4973235;28;20206;-68
2023/06/06 07:12:58;;;;;;;0.53;0.53;;;;;;;23.81;61.85;99932.19;4971770;28;20660;-68
2023/06/06 07:15:24;;;;;;;0.20;0.20;;;;;;;23.92;62.17;99935.63;4973495;28;20211;-68
2023/06/06 07:17:51;;;;;;;0.27;0.27;;;;;;;23.82;60.80;99928.59;4972914;28;20223;-68
2023/06/06 07:20:19;;;;;;;0.27;0.27;;;;;;;23.70;62.33;99919.06;4974356;28;20203;-67
2023/06/06 07:22:49;;;;;;;0.40;0.40;;;;;;;24.03;61.48;99927.78;4973862;28;20215;-68
2023/06/06 07:25:16;;;;;;;0.40;0.40;;;;;;;23.79;61.70;99900.84;4965360;28;20563;-70
2023/06/06 07:27:43;;;;;;;0.30;0.30;;;;;;;23.53;60.87;99923.78;4973441;28;20211;-70
2023/06/06 07:30:13;;;;;;;0.50;0.50;;;;;;;23.31;61.18;99923.69;4973234;28;20219;-70
2023/06/06 07:32:41;;;;;;;0.30;0.30;;;;;;;23.46;63.12;99926.97;4972315;28;20628;-71
2023/06/06 07:35:09;;;;;;;0.30;0.30;;;;;;;23.84;60.95;99931.94;4972003;28;20207;-70
2023/06/06 07:37:36;;;;;;;0.40;0.40;;;;;;;24.08;62.79;99922.19;4972337;28;20235;-69
2023/06/06 07:40:07;;;;;;;0.30;0.30;;;;;;;24.20;58.83;99908.16;4971921;28;20215;-71
2023/06/06 07:42:34;;;;;;;0.50;0.50;;;;;;;24.55;57.39;99923.75;4969990;28;20207;-69
2023/06/06 07:45:01;;;;;;;0.20;0.20;;;;;;;24.48;57.26;99922.56;4971820;28;20203;-70
2023/06/06 07:47:28;;;;;;;0.40;0.40;;;;;;;24.39;56.50;99928.53;4975223;28;20269;-70
2023/06/06 07:49:55;;;;;;;0.23;0.23;;;;;;;24.38;55.83;99926.84;4969758;28;20203;-71
2023/06/06 07:52:22;;;;;;;0.40;0.40;;;;;;;24.38;56.49;99926.84;4971044;28;20235;-69
2023/06/06 07:54:49;;;;;;;0.47;0.47;;;;;;;24.30;56.61;99934.47;4968823;28;20207;-68
2023/06/06 07:57:17;;;;;;;0.30;0.30;;;;;;;24.02;58.50;99925.28;4973270;28;20280;-67
2023/06/06 07:59:45;;;;;;;0.30;0.30;;;;;;;24.11;58.19;99916.69;4971112;28;20207;-69
2023/06/06 08:02:14;;;;;;;0.30;0.30;;;;;;;24.32;58.37;99928.19;4971530;28;20697;-66
2023/06/06 08:04:45;;;;;;;0.30;0.30;;;;;;;24.66;56.05;99920.25;4971052;28;20266;-69
2023/06/06 08:07:13;;;;;;;0.40;0.40;;;;;;;24.52;55.04;99921.38;4971175;28;20266;-69
2023/06/06 08:09:40;;;;;;;0.40;0.40;;;;;;;24.75;56.30;99925.59;4970138;28;20627;-68
2023/06/06 08:12:07;;;;;;;0.33;0.33;;;;;;;24.53;55.79;99929.09;4972270;28;20689;-68
2023/06/06 08:14:36;;;;;;;0.30;0.30;;;;;;;24.66;56.08;99915.00;4971496;28;20227;-68
2023/06/06 08:17:04;;;;;;;0.20;0.20;;;;;;;24.97;57.95;99909.84;4971373;28;20215;-68
2023/06/06 08:19:30;;;;;;;0.20;0.20;;;;;;;25.31;55.65;99917.53;4974070;28;20649;-68
2023/06/06 08:21:57;;;;;;;0.20;0.20;;;;;;;25.56;56.02;99906.69;4971699;28;20208;-68
2023/06/06 08:24:24;;;;;;;0.30;0.30;;;;;;;25.73;55.63;99913.16;4970497;28;20215;-68
2023/06/06 08:26:51;;;;;;;0.30;0.30;;;;;;;25.84;53.83;99913.09;4971080;28;20246;-69
2023/06/06 08:29:17;;;;;;;0.30;0.30;;;;;;;25.71;53.70;99908.03;4972021;28;20203;-68
2023/06/06 08:31:46;;;;;;;0.33;0.33;;;;;;;25.73;52.31;99910.53;4972598;28;20753;-68
2023/06/06 08:34:14;;;;;;;0.20;0.20;;;;;;;25.75;52.90;99912.03;4971578;28;20655;-68
2023/06/06 08:36:41;;;;;;;0.40;0.40;;;;;;;25.96;54.77;99904.97;4969921;28;20237;-68
2023/06/06 08:39:08;;;;;;;0.30;0.30;;;;;;;25.81;53.90;99903.69;4971073;28;20220;-68
2023/06/06 08:41:35;;;;;;;0.20;0.20;;;;;;;25.78;52.91;99906.56;4971097;28;20203;-69
2023/06/06 08:44:03;;;;;;;0.20;0.20;;;;;;;25.78;52.57;99889.97;4971038;28;20250;-68
2023/06/06 08:46:33;;;;;;;0.30;0.30;;;;;;;25.46;53.97;99884.78;4969765;28;20290;-68
2023/06/06 08:49:04;;;;;;;0.30;0.30;;;;;;;25.57;55.43;99892.59;4968323;28;20290;-68
2023/06/06 08:51:31;;;;;;;0.30;0.30;;;;;;;25.24;53.80;99890.13;4971312;28;20278;-68
2023/06/06 08:54:00;;;;;;;0.30;0.30;;;;;;;25.34;54.59;99885.78;4971045;28;20227;-69
2023/06/06 08:56:27;;;;;;;0.30;0.30;;;;;;;25.61;54.79;99888.75;4972148;28;20214;-68
2023/06/06 08:58:55;;;;;;;0.37;0.37;;;;;;;25.19;54.56;99887.06;4972500;28;20223;-68
2023/06/06 09:01:22;;;;;;;0.30;0.30;;;;;;;25.23;55.55;99872.75;4971468;28;20209;-69
2023/06/06 09:03:53;;;;;;;0.30;0.30;;;;;;;25.22;53.93;99886.81;4970310;28;20663;-69
2023/06/06 09:06:22;;;;;;;0.30;0.30;;;;;;;25.13;54.40;99877.91;4970416;28;20234;-69
2023/06/06 09:08:50;;;;;;;0.30;0.30;;;;;;;25.19;52.96;99881.81;4971894;28;20199;-69
2023/06/06 09:11:18;;;;;;;0.30;0.30;;;;;;;25.31;53.56;99886.88;4963024;28;20204;-69
2023/06/06 09:13:45;;;;;;;0.20;0.20;;;;;;;25.16;54.36;99871.56;4969389;28;20214;-68
2023/06/06 09:16:13;;;;;;;0.30;0.30;;;;;;;25.22;54.44;99871.06;4971626;28;20199;-68
2023/06/06 09:18:41;;;;;;;0.30;0.30;;;;;;;25.26;54.31;99872.47;4971681;28;20222;-69
2023/06/06 09:21:08;;;;;;;0.20;0.20;;;;;;;25.17;53.98;99862.75;4971576;28;20211;-69
2023/06/06 09:23:37;;;;;;;0.20;0.20;;;;;;;25.44;52.09;99863.06;4971531;28;20203;-68
2023/06/06 09:26:04;;;;;;;0.40;0.40;;;;;;;25.58;54.72;99852.25;4971416;28;20219;-68
2023/06/06 09:28:38;;;;;;;0.20;0.20;;;;;;;25.65;48.51;99869.16;4971644;28;20210;-69
2023/06/06 09:31:48;;;;;;;0.37;0.37;;;;;;;25.65;49.26;99863.09;4971249;28;20686;-68
2023/06/06 09:34:15;;;;;;;0.40;0.40;;;;;;;25.44;47.97;99850.78;4964182;28;20207;-69
2023/06/06 09:36:45;;;;;;;0.20;0.20;;;;;;;25.71;51.21;99842.38;4969357;28;20975;-67
2023/06/06 09:39:15;;;;;;;0.37;0.37;;;;;;;25.95;49.43;99845.50;4970946;28;20259;-68
2023/06/06 09:41:42;;;;;;;0.30;0.30;;;;;;;25.70;47.47;99845.97;4969096;28;20208;-68
2023/06/06 09:44:20;;;;;;;0.30;0.30;;;;;;;25.49;45.71;99837.28;4970560;28;20701;-68
2023/06/06 09:46:47;;;;;;;0.77;0.77;;;;;;;25.52;45.74;99847.53;4972262;28;20266;-66
2023/06/06 09:49:14;;;;;;;0.20;0.20;;;;;;;25.43;45.25;99838.59;4970703;28;20203;-66
2023/06/06 09:51:42;;;;;;;0.20;0.20;;;;;;;25.61;44.04;99844.13;4968388;28;20219;-67
2023/06/06 09:54:10;;;;;;;0.30;0.30;;;;;;;25.58;42.12;99834.72;4970306;28;20207;-64
2023/06/06 09:56:40;;;;;;;0.30;0.30;;;;;;;25.43;40.17;99835.13;4970807;28;20239;-65
2023/06/06 09:59:08;;;;;;;0.20;0.20;;;;;;;25.45;42.20;99834.06;4972299;28;20279;-65
2023/06/06 10:01:40;;;;;;;0.40;0.40;;;;;;;25.63;45.23;99833.47;4972360;28;20208;-68
2023/06/06 10:04:09;;;;;;;0.43;0.43;;;;;;;25.83;45.81;99832.59;4971318;28;20214;-67
2023/06/06 10:06:38;;;;;;;0.50;0.50;;;;;;;25.66;44.16;99807.78;4968914;28;20211;-68
2023/06/06 10:09:06;;;;;;;1.43;0.30;;;;;;;25.84;44.14;99811.47;4966545;28;20874;-68
2023/06/06 10:11:34;;;;;;;0.43;0.40;;;;;;;26.06;45.71;99798.13;4972188;28;20226;-68
2023/06/06 10:14:03;;;;;;;0.30;0.30;;;;;;;26.21;43.47;99810.88;4969864;28;20267;-68
2023/06/06 10:16:31;;;;;;;0.50;0.50;;;;;;;26.40;46.35;99801.25;4971662;28;20203;-68
2023/06/06 10:18:59;;;;;;;0.20;0.20;;;;;;;26.65;44.15;99807.78;4971816;28;21099;-69
2023/06/06 10:21:28;;;;;;;0.30;0.30;;;;;;;26.58;43.04;99806.66;4972413;28;20199;-69
2023/06/06 10:23:55;;;;;;;0.30;0.30;;;;;;;26.56;42.07;99796.28;4971461;28;20232;-69
2023/06/06 10:26:26;;;;;;;0.40;0.40;;;;;;;26.39;44.28;99791.72;4959954;28;20251;-69
2023/06/06 10:29:00;;;;;;;0.20;0.20;;;;;;;26.13;44.39;99789.69;4953728;28;20200;-69
2023/06/06 10:31:37;;;;;;;0.33;0.33;;;;;;;25.85;45.46;99771.09;4954455;28;20214;-68
2023/06/06 10:34:07;;;;;;;0.40;0.40;;;;;;;26.20;45.51;99783.81;4954340;28;20199;-69
2023/06/06 10:36:44;;;;;;;0.30;0.30;;;;;;;26.09;45.21;99792.59;4953533;28;20204;-68
2023/06/06 10:39:21;;;;;;;0.67;0.37;;;;;;;26.23;42.75;99783.53;4954200;28;20228;-69
2023/06/06 10:41:53;;;;;;;0.23;0.23;;;;;;;26.24;41.35;99777.28;4954518;28;20208;-68
2023/06/06 10:44:25;;;;;;;0.40;0.40;;;;;;;26.18;41.07;99777.81;4954967;28;20204;-68
2023/06/06 10:47:27;;;;;;;0.30;0.30;;;;;;;26.23;44.68;99765.13;4955791;28;20204;-69
2023/06/06 10:50:24;;;;;;;0.40;0.40;;;;;;;26.47;43.97;99762.09;4953401;28;20204;-69
2023/06/06 10:52:53;;;;;;;0.30;0.30;;;;;;;26.65;44.32;99754.34;4888537;29;20214;-69
2023/06/06 10:55:42;;;;;;;0.40;0.40;;;;;;;26.87;41.59;99752.28;4939754;28;20302;-68
2023/06/06 10:58:13;;;;;;;0.30;0.30;;;;;;;26.87;43.35;99744.38;4951712;28;20204;-69
2023/06/06 11:00:42;;;;;;;0.27;0.27;;;;;;;26.89;42.87;99745.06;4954358;28;20211;-69
2023/06/06 11:03:13;;;;;;;0.20;0.20;;;;;;;26.82;44.56;99735.25;4959821;28;20290;-69
2023/06/06 11:06:04;;;;;;;0.20;0.20;;;;;;;26.66;41.70;99733.16;4952493;28;20660;-69
2023/06/06 11:08:35;;;;;;;0.30;0.30;;;;;;;26.75;43.35;99719.19;4952971;28;20208;-68
2023/06/06 11:11:18;;;;;;;0.30;0.30;;;;;;;26.59;42.93;99713.66;4953609;28;20208;-68
2023/06/06 11:13:51;;;;;;;0.30;0.30;;;;;;;26.63;43.87;99730.78;4951087;28;20208;-68
2023/06/06 11:16:27;;;;;;;0.30;0.30;;;;;;;26.60;42.08;99723.19;4954234;28;20239;-68
2023/06/06 11:19:01;;;;;;;0.27;0.27;;;;;;;26.77;42.67;99726.91;4959608;28;20228;-68
2023/06/06 11:21:29;;;;;;;0.20;0.20;;;;;;;26.83;40.11;99737.72;4953276;28;20214;-69
2023/06/06 11:23:57;;;;;;;0.67;0.40;;;;;;;26.49;38.26;99720.72;4953546;28;20243;-69
2023/06/06 11:26:25;;;;;;;0.40;0.40;;;;;;;26.65;40.09;99722.78;4966018;28;20643;-69
2023/06/06 11:28:55;;;;;;;0.60;0.60;;;;;;;27.00;40.80;99730.91;4974510;28;20200;-69
2023/06/06 11:31:24;;;;;;;0.30;0.30;;;;;;;27.09;39.41;99724.78;4971673;28;20274;-69
2023/06/06 11:33:51;;;;;;;0.20;0.20;;;;;;;27.16;41.63;99717.16;4972766;28;20211;-68
2023/06/06 11:36:20;;;;;;;0.30;0.30;;;;;;;27.26;38.69;99723.22;4971972;28;20647;-69
2023/06/06 11:38:47;;;;;;;0.37;0.37;;;;;;;27.17;36.71;99716.19;4974183;28;20695;-68
2023/06/06 11:41:15;;;;;;;0.40;0.40;;;;;;;27.03;37.64;99722.72;4973987;28;20623;-68